65VA weather

Nat'l Hosp For Orthopaedics/Rehabilitation Heliport
Arlington, Virginia, United States

Public forecast

Using degrees Fahrenheit for public forecast. Weather courtesy of forecast.io.

METAR (pilot weather report)

Closest report is Ronald Reagan Washington National Airport, 1.8 nm (3.4 km) E. Retrieved 2019/05/24 09:52 UTC (27 minutes ago):

KDCA 240952Z 30006KT 10SM FEW050 SCT250 23/18 A2996 RMK AO2 SLP144 T02280183

TAF (pilot weather forecast)

Closest forecast is Ronald Reagan Washington National Airport, 1.8 nm (3.4 km) E. Retrieved 2019/05/24 06:45 UTC (4 hours ago):

TAF KDCA 240543Z 2406/2512 20006KT P6SM SCT250 FM240900 28008KT P6SM FEW250 FM241300 32014G23KT P6SM FEW250 FM242200 33010KT P6SM FEW250 FM250200 02005KT P6SM FEW090 FM250900 VRB04KT P6SM SCT050